This is the latest recevied weather packets stored in our database for station/object YO8CLN-10. If no packets are shown the sender has not sent any weather packets the latest 10 day(s).
| Time | Temp. | Humidity | Pressure | Rain* | Wind** | Luminosity | Snow |
|---|---|---|---|---|---|---|---|
| 1777457510 | 8.89° C | 47% | 1111 hPa | 0 mm | - | - | - |
| 1777456910 | 8.89° C | 47% | 1111 hPa | 0 mm | - | - | - |
| 1777456309 | 8.89° C | 47% | 1111 hPa | 0 mm | - | - | - |
| 1777455709 | 8.89° C | 47% | 1111 hPa | 0 mm | - | - | - |
| 1777455108 | 8.89° C | 48% | 1111 hPa | 0 mm | - | - | - |
| 1777454508 | 8.89° C | 48% | 1111 hPa | 0 mm | - | - | - |
| 1777453907 | 8.89° C | 48% | 1111 hPa | 0 mm | - | - | - |
| 1777453306 | 8.33° C | 48% | 1111 hPa | 0 mm | - | - | - |
| 1777452706 | 8.33° C | 49% | 1111 hPa | 0 mm | - | - | - |
| 1777452105 | 8.33° C | 49% | 1111 hPa | 0 mm | - | - | - |
| 1777451505 | 7.78° C | 49% | 1111 hPa | 0 mm | - | - | - |
| 1777450904 | 8.33° C | 48% | 1111 hPa | 0 mm | - | - | - |
| 1777450304 | 7.78° C | 51% | 1111 hPa | 0 mm | - | - | - |
| 1777449703 | 7.78° C | 52% | 1111 hPa | 0 mm | - | - | - |
| 1777449102 | 7.22° C | 54% | 1111 hPa | 0 mm | - | - | - |
| 1777448502 | 6.67° C | 55% | 1111 hPa | 0 mm | - | - | - |
| 1777447901 | 5.56° C | 56% | 1111 hPa | 0 mm | - | - | - |
| 1777447301 | 5.56° C | 57% | 1111 hPa | 0 mm | - | - | - |
| 1777446700 | 4.44° C | 61% | 1111 hPa | 0 mm | - | - | - |
| 1777446100 | 4.44° C | 62% | 1111 hPa | 0 mm | - | - | - |
| 1777445499 | 3.89° C | 64% | 1111 hPa | 0 mm | - | - | - |
| 1777444898 | 3.33° C | 67% | 1111 hPa | 0 mm | - | - | - |
| 1777444298 | 2.78° C | 68% | 1111 hPa | 0 mm | - | - | - |
| 1777443697 | 2.22° C | 69% | 1111 hPa | 0 mm | - | - | - |
| 1777443097 | 1.67° C | 70% | 1111 hPa | 0 mm | - | - | - |
* Rain latest hour (hover to see other rain measurements)
** Current wind speed in m/s (hover to see current wind gust speed)